createdAt,value
2018-02-07T00:00:10.757Z,987.82
2018-02-07T00:01:10.788Z,987.81
2018-02-07T00:02:10.808Z,987.79
2018-02-07T00:03:10.673Z,987.80
2018-02-07T00:04:11.177Z,987.77
2018-02-07T00:05:10.799Z,987.76
2018-02-07T00:06:10.614Z,987.78
2018-02-07T00:07:10.703Z,987.78
2018-02-07T00:08:10.573Z,987.85
2018-02-07T00:09:10.581Z,987.80
2018-02-07T00:10:10.535Z,987.79
2018-02-07T00:11:10.514Z,987.79
2018-02-07T00:12:10.574Z,987.80
2018-02-07T00:13:10.496Z,987.83
2018-02-07T00:14:10.980Z,987.84
2018-02-07T00:15:10.481Z,987.84
2018-02-07T00:16:10.406Z,987.85
2018-02-07T00:17:10.364Z,987.86
2018-02-07T00:18:10.458Z,987.87
2018-02-07T00:19:10.345Z,987.90
2018-02-07T00:20:10.322Z,987.90
2018-02-07T00:21:10.307Z,987.89
2018-02-07T00:22:10.255Z,987.90
2018-02-07T00:23:10.864Z,987.91
2018-02-07T00:24:10.258Z,987.90
2018-02-07T00:25:10.208Z,987.93
2018-02-07T00:26:10.185Z,987.94
2018-02-07T00:27:10.179Z,987.93
2018-02-07T00:28:10.217Z,987.95
2018-02-07T00:29:10.099Z,987.93
2018-02-07T00:30:10.080Z,987.95
2018-02-07T00:31:10.213Z,987.96
2018-02-07T00:32:10.053Z,987.98
2018-02-07T00:33:10.120Z,988.01
2018-02-07T00:34:10.050Z,987.99
2018-02-07T00:35:09.979Z,988.00
2018-02-07T00:36:09.962Z,988.04
2018-02-07T00:37:09.956Z,988.05
2018-02-07T00:38:09.974Z,988.05
2018-02-07T00:39:10.172Z,988.05
2018-02-07T00:40:09.864Z,988.09
2018-02-07T00:41:10.411Z,988.14
2018-02-07T00:42:09.813Z,988.13
2018-02-07T00:43:10.389Z,988.19
2018-02-07T00:44:09.838Z,988.22
2018-02-07T00:45:09.868Z,988.22
2018-02-07T00:46:09.771Z,988.27
2018-02-07T00:47:09.779Z,988.30
2018-02-07T00:48:09.696Z,988.34
2018-02-07T00:49:09.696Z,988.32
2018-02-07T00:50:09.725Z,988.34
2018-02-07T00:51:09.667Z,988.33
2018-02-07T00:52:09.584Z,988.33
2018-02-07T00:53:09.586Z,988.39
2018-02-07T00:54:09.571Z,988.38
2018-02-07T00:55:09.697Z,988.40
2018-02-07T00:56:09.568Z,988.39
2018-02-07T00:57:09.476Z,988.44
2018-02-07T00:58:09.506Z,988.42
2018-02-07T00:59:09.942Z,988.44
2018-02-07T01:00:09.428Z,988.48
2018-02-07T01:01:09.554Z,988.46
2018-02-07T01:02:09.421Z,988.49
2018-02-07T01:03:09.445Z,988.47
2018-02-07T01:04:09.488Z,988.47
2018-02-07T01:05:09.334Z,988.50
2018-02-07T01:06:09.327Z,988.53
2018-02-07T01:07:09.906Z,988.52
2018-02-07T01:08:09.477Z,988.57
2018-02-07T01:09:09.247Z,988.58
2018-02-07T01:10:09.209Z,988.63
2018-02-07T01:11:09.244Z,988.60
2018-02-07T01:12:09.330Z,988.61
2018-02-07T01:13:09.655Z,988.61
2018-02-07T01:14:09.818Z,988.63
2018-02-07T01:15:09.111Z,988.64
2018-02-07T01:16:09.049Z,988.65
2018-02-07T01:17:09.748Z,988.66
2018-02-07T01:18:09.163Z,988.67
2018-02-07T01:19:08.992Z,988.69
2018-02-07T01:20:08.966Z,988.70
2018-02-07T01:21:09.025Z,988.73
2018-02-07T01:22:09.008Z,988.79
2018-02-07T01:23:08.964Z,988.79
2018-02-07T01:24:09.221Z,988.76
2018-02-07T01:25:09.398Z,988.80
2018-02-07T01:26:09.382Z,988.80
2018-02-07T01:27:08.820Z,988.82
2018-02-07T01:28:09.137Z,988.84
2018-02-07T01:29:09.611Z,988.87
2018-02-07T01:30:09.496Z,988.88
2018-02-07T01:31:08.723Z,988.90
2018-02-07T01:32:09.162Z,988.88
2018-02-07T01:33:09.163Z,988.90
2018-02-07T01:34:08.957Z,988.89
2018-02-07T01:35:09.191Z,988.91
2018-02-07T01:36:08.896Z,988.89
2018-02-07T01:37:08.708Z,988.87
2018-02-07T01:38:08.653Z,988.93
2018-02-07T01:39:09.164Z,988.93
2018-02-07T01:40:08.699Z,988.91
2018-02-07T01:41:08.525Z,988.94
2018-02-07T01:42:09.155Z,988.97
2018-02-07T01:43:08.946Z,989.01
2018-02-07T01:44:08.881Z,989.01
2018-02-07T01:45:09.294Z,989.07
2018-02-07T01:46:08.499Z,989.13
2018-02-07T01:47:08.886Z,989.13
2018-02-07T01:48:08.359Z,989.23
2018-02-07T01:49:09.467Z,989.23
2018-02-07T01:50:08.469Z,989.23
2018-02-07T01:51:09.263Z,989.25
2018-02-07T01:52:08.718Z,989.26
2018-02-07T01:53:08.858Z,989.28
2018-02-07T01:54:08.725Z,989.30
2018-02-07T01:55:08.151Z,989.35
2018-02-07T01:56:08.711Z,989.38
2018-02-07T01:57:08.590Z,989.42
2018-02-07T01:58:08.739Z,989.44
2018-02-07T01:59:08.604Z,989.46
2018-02-07T02:00:08.618Z,989.45
2018-02-07T02:01:08.223Z,989.47
2018-02-07T02:02:08.171Z,989.45
2018-02-07T02:03:08.214Z,989.50
2018-02-07T02:04:08.092Z,989.52
2018-02-07T02:05:07.942Z,989.51
2018-02-07T02:06:07.981Z,989.52
2018-02-07T02:07:08.427Z,989.51
2018-02-07T02:08:08.380Z,989.53
2018-02-07T02:09:07.944Z,989.55
2018-02-07T02:10:07.890Z,989.56
2018-02-07T02:11:07.874Z,989.59
2018-02-07T02:12:07.953Z,989.59
2018-02-07T02:13:08.795Z,989.62
2018-02-07T02:14:07.841Z,989.58
2018-02-07T02:15:08.220Z,989.59
2018-02-07T02:16:07.726Z,989.61
2018-02-07T02:17:07.664Z,989.66
2018-02-07T02:18:07.876Z,989.61
2018-02-07T02:19:07.974Z,989.59
2018-02-07T02:20:07.773Z,989.64
2018-02-07T02:21:07.588Z,989.65
2018-02-07T02:22:07.562Z,989.62
2018-02-07T02:23:08.068Z,989.63
2018-02-07T02:24:08.136Z,989.60
2018-02-07T02:25:07.529Z,989.63
2018-02-07T02:26:08.206Z,989.64
2018-02-07T02:27:08.048Z,989.63
2018-02-07T02:28:08.246Z,989.66
2018-02-07T02:29:07.736Z,989.68
2018-02-07T02:30:07.570Z,989.63
2018-02-07T02:31:07.918Z,989.63
2018-02-07T02:32:07.336Z,989.62
2018-02-07T02:33:07.355Z,989.63
2018-02-07T02:34:08.269Z,989.61
2018-02-07T02:35:07.899Z,989.63
2018-02-07T02:36:07.322Z,989.65
2018-02-07T02:37:07.820Z,989.65
2018-02-07T02:38:07.214Z,989.66
2018-02-07T02:39:07.532Z,989.69
2018-02-07T02:40:07.541Z,989.66
2018-02-07T02:41:07.120Z,989.62
2018-02-07T02:42:07.259Z,989.65
2018-02-07T02:43:07.468Z,989.68
2018-02-07T02:44:07.648Z,989.69
2018-02-07T02:45:07.002Z,989.72
2018-02-07T02:46:07.004Z,989.69
2018-02-07T02:47:07.130Z,989.71
2018-02-07T02:48:06.983Z,989.69
2018-02-07T02:49:07.226Z,989.71
2018-02-07T02:50:07.554Z,989.73
2018-02-07T02:51:07.115Z,989.67
2018-02-07T02:52:07.525Z,989.68
2018-02-07T02:53:06.890Z,989.68
2018-02-07T02:54:07.212Z,989.72
2018-02-07T02:55:07.151Z,989.73
2018-02-07T02:56:06.814Z,989.74
2018-02-07T02:57:06.984Z,989.80
2018-02-07T02:58:06.822Z,989.79
2018-02-07T02:59:07.239Z,989.79
2018-02-07T03:00:07.123Z,989.82
2018-02-07T03:01:06.769Z,989.84
2018-02-07T03:02:07.012Z,989.83
2018-02-07T03:03:06.949Z,989.86
2018-02-07T03:04:06.926Z,989.87
2018-02-07T03:05:07.036Z,989.86
2018-02-07T03:06:06.594Z,989.92
2018-02-07T03:07:06.538Z,989.92
2018-02-07T03:08:06.535Z,989.95
2018-02-07T03:09:06.606Z,989.98
2018-02-07T03:10:06.467Z,989.98
2018-02-07T03:11:06.795Z,989.93
2018-02-07T03:12:06.365Z,989.95
2018-02-07T03:13:06.696Z,989.94
2018-02-07T03:14:06.518Z,989.98
2018-02-07T03:15:06.937Z,989.95
2018-02-07T03:16:06.328Z,989.99
2018-02-07T03:17:06.261Z,990.01
2018-02-07T03:18:06.320Z,990.03
2018-02-07T03:19:06.698Z,990.01
2018-02-07T03:20:06.310Z,989.99
2018-02-07T03:21:06.322Z,989.98
2018-02-07T03:22:06.633Z,990.01
2018-02-07T03:23:06.233Z,989.99
2018-02-07T03:24:06.698Z,990.01
2018-02-07T03:25:06.166Z,990.03
2018-02-07T03:26:06.172Z,990.03
2018-02-07T03:27:06.473Z,990.00
2018-02-07T03:28:06.479Z,990.04
2018-02-07T03:29:06.019Z,989.99
2018-02-07T03:30:05.994Z,990.01
2018-02-07T03:31:06.074Z,989.99
2018-02-07T03:32:06.070Z,989.99
2018-02-07T03:33:06.008Z,989.99
2018-02-07T03:34:06.190Z,989.99
2018-02-07T03:35:06.422Z,990.00
2018-02-07T03:36:06.023Z,989.98
2018-02-07T03:37:05.840Z,990.00
2018-02-07T03:38:05.863Z,990.04
2018-02-07T03:39:05.827Z,990.03
2018-02-07T03:40:05.816Z,990.02
2018-02-07T03:41:05.895Z,990.01
2018-02-07T03:42:05.685Z,990.03
2018-02-07T03:43:05.639Z,990.02
2018-02-07T03:44:05.678Z,990.06
2018-02-07T03:45:05.832Z,990.07
2018-02-07T03:46:05.686Z,990.16
2018-02-07T03:47:05.744Z,990.18
2018-02-07T03:48:06.115Z,990.19
2018-02-07T03:49:05.463Z,990.22
2018-02-07T03:50:06.053Z,990.24
2018-02-07T03:51:05.526Z,990.20
2018-02-07T03:52:05.684Z,990.21
2018-02-07T03:53:06.408Z,990.21
2018-02-07T03:54:06.057Z,990.25
2018-02-07T03:55:05.745Z,990.23
2018-02-07T03:56:05.585Z,990.24
2018-02-07T03:57:05.437Z,990.23
2018-02-07T03:58:06.139Z,990.20
2018-02-07T03:59:06.208Z,990.16
2018-02-07T04:00:05.480Z,990.14
2018-02-07T04:01:05.639Z,990.12
2018-02-07T04:02:05.459Z,990.14
2018-02-07T04:03:05.628Z,990.11
2018-02-07T04:04:06.313Z,990.14
2018-02-07T04:05:06.109Z,990.18
2018-02-07T04:06:05.907Z,990.17
2018-02-07T04:07:05.897Z,990.16
2018-02-07T04:08:06.343Z,990.15
2018-02-07T04:09:06.674Z,990.17
2018-02-07T04:10:06.307Z,990.11
2018-02-07T04:11:06.682Z,990.11
2018-02-07T04:12:06.393Z,990.07
2018-02-07T04:13:06.400Z,990.07
2018-02-07T04:14:06.952Z,990.04
2018-02-07T04:15:07.413Z,990.03
2018-02-07T04:16:06.585Z,990.03
2018-02-07T04:17:06.881Z,990.02
2018-02-07T04:18:06.712Z,990.07
2018-02-07T04:19:05.860Z,990.08
2018-02-07T04:20:06.071Z,990.06
2018-02-07T04:21:07.500Z,990.04
2018-02-07T04:22:06.787Z,990.04
2018-02-07T04:23:06.382Z,989.98
2018-02-07T04:24:06.483Z,990.01
2018-02-07T04:25:06.337Z,990.04
2018-02-07T04:26:06.053Z,990.01
2018-02-07T04:27:06.987Z,989.99
2018-02-07T04:28:06.643Z,989.99
2018-02-07T04:29:05.616Z,989.95
2018-02-07T04:30:06.238Z,989.96
2018-02-07T04:31:06.067Z,989.93
2018-02-07T04:32:06.113Z,989.95
2018-02-07T04:33:06.978Z,989.98
2018-02-07T04:34:06.245Z,990.00
2018-02-07T04:35:05.831Z,989.98
2018-02-07T04:36:06.354Z,989.94
2018-02-07T04:37:06.134Z,989.93
2018-02-07T04:38:06.346Z,989.90
2018-02-07T04:39:06.510Z,989.90
2018-02-07T04:40:06.335Z,989.94
2018-02-07T04:41:05.932Z,989.89
2018-02-07T04:42:06.027Z,989.90
2018-02-07T04:43:06.317Z,989.88
2018-02-07T04:44:05.713Z,989.90
2018-02-07T04:45:07.497Z,989.94
2018-02-07T04:46:05.820Z,989.92
2018-02-07T04:47:05.767Z,989.91
2018-02-07T04:48:05.822Z,989.86
2018-02-07T04:49:05.753Z,989.88
2018-02-07T04:50:05.758Z,989.90
2018-02-07T04:51:06.711Z,989.89
2018-02-07T04:52:05.229Z,989.91
2018-02-07T04:53:04.818Z,989.89
2018-02-07T04:54:05.198Z,989.90
2018-02-07T04:55:05.320Z,989.91
2018-02-07T04:56:05.412Z,989.90
2018-02-07T04:58:06.463Z,989.89
2018-02-07T04:59:04.718Z,989.89
2018-02-07T05:00:05.336Z,989.88
2018-02-07T05:01:05.459Z,989.88
2018-02-07T05:02:05.366Z,989.92
2018-02-07T05:03:04.835Z,989.89
2018-02-07T05:04:05.543Z,989.87
2018-02-07T05:05:04.821Z,989.90
2018-02-07T05:06:05.284Z,989.95
2018-02-07T05:07:05.031Z,989.85
2018-02-07T05:08:05.041Z,989.91
2018-02-07T05:09:04.847Z,989.92
2018-02-07T05:10:06.069Z,989.93
2018-02-07T05:11:05.197Z,989.94
2018-02-07T05:12:04.785Z,989.92
2018-02-07T05:13:04.814Z,989.87
2018-02-07T05:14:04.599Z,989.86
2018-02-07T05:15:05.062Z,989.88
2018-02-07T05:16:05.475Z,989.90
2018-02-07T05:17:05.359Z,989.85
2018-02-07T05:18:05.784Z,989.88
2018-02-07T05:19:04.857Z,989.89
2018-02-07T05:20:04.929Z,989.85
2018-02-07T05:21:04.420Z,989.86
2018-02-07T05:22:05.678Z,989.83
2018-02-07T05:23:04.876Z,989.85
2018-02-07T05:24:04.913Z,989.85
2018-02-07T05:25:04.188Z,989.84
2018-02-07T05:26:04.496Z,989.82
2018-02-07T05:27:04.451Z,989.79
2018-02-07T05:28:04.921Z,989.76
2018-02-07T05:29:04.350Z,989.77
2018-02-07T05:30:04.683Z,989.78
2018-02-07T05:31:04.599Z,989.73
2018-02-07T05:32:04.555Z,989.78
2018-02-07T05:33:04.705Z,989.75
2018-02-07T05:34:05.136Z,989.68
2018-02-07T05:35:02.766Z,989.68
2018-02-07T05:36:04.369Z,989.67
2018-02-07T05:37:04.580Z,989.66
2018-02-07T05:38:04.202Z,989.64
2018-02-07T05:39:04.188Z,989.61
2018-02-07T05:40:05.181Z,989.60
2018-02-07T05:41:04.590Z,989.65
2018-02-07T05:42:04.331Z,989.63
2018-02-07T05:43:04.270Z,989.59
2018-02-07T05:44:02.534Z,989.58
2018-02-07T05:45:04.253Z,989.54
2018-02-07T05:46:04.282Z,989.52
2018-02-07T05:47:03.776Z,989.52
2018-02-07T05:48:04.099Z,989.49
2018-02-07T05:49:04.194Z,989.42
2018-02-07T05:50:03.685Z,989.44
2018-02-07T05:51:03.883Z,989.43
2018-02-07T05:52:05.056Z,989.43
2018-02-07T05:53:03.657Z,989.44
2018-02-07T05:54:04.111Z,989.40
2018-02-07T05:55:03.926Z,989.41
2018-02-07T05:56:03.854Z,989.38
2018-02-07T05:57:03.865Z,989.37
2018-02-07T05:58:05.316Z,989.35
2018-02-07T05:59:02.999Z,989.33
2018-02-07T06:00:03.337Z,989.33
2018-02-07T06:01:03.808Z,989.33
2018-02-07T06:02:03.785Z,989.36
2018-02-07T06:03:03.895Z,989.36
2018-02-07T06:04:04.250Z,989.38
2018-02-07T06:05:04.106Z,989.36
2018-02-07T06:06:03.426Z,989.39
2018-02-07T06:07:03.421Z,989.41
2018-02-07T06:08:03.416Z,989.38
2018-02-07T06:09:03.607Z,989.38
2018-02-07T06:10:04.697Z,989.36
2018-02-07T06:11:03.526Z,989.38
2018-02-07T06:12:03.588Z,989.41
2018-02-07T06:13:03.510Z,989.37
2018-02-07T06:14:03.876Z,989.37
2018-02-07T06:15:03.507Z,989.36
2018-02-07T06:16:04.382Z,989.33
2018-02-07T06:17:03.380Z,989.32
2018-02-07T06:18:03.510Z,989.33
2018-02-07T06:19:03.359Z,989.33
2018-02-07T06:20:02.918Z,989.35
2018-02-07T06:21:03.426Z,989.36
2018-02-07T06:22:04.130Z,989.33
2018-02-07T06:23:03.367Z,989.30
2018-02-07T06:24:03.492Z,989.28
2018-02-07T06:25:03.094Z,989.28
2018-02-07T06:26:02.698Z,989.24
2018-02-07T06:27:03.233Z,989.32
2018-02-07T06:28:03.874Z,989.28
2018-02-07T06:29:02.917Z,989.26
2018-02-07T06:30:03.400Z,989.24
2018-02-07T06:31:02.966Z,989.20
2018-02-07T06:32:01.722Z,989.20
2018-02-07T06:33:02.792Z,989.18
2018-02-07T06:34:03.689Z,989.15
2018-02-07T06:35:03.001Z,989.10
2018-02-07T06:36:02.797Z,989.11
2018-02-07T06:37:02.944Z,989.10
2018-02-07T06:38:02.828Z,989.06
2018-02-07T06:39:02.948Z,989.06
2018-02-07T06:40:03.348Z,989.08
2018-02-07T06:41:02.655Z,989.00
2018-02-07T06:42:02.752Z,989.00
2018-02-07T06:43:02.705Z,988.96
2018-02-07T06:44:02.749Z,988.94
2018-02-07T06:45:03.136Z,988.97
2018-02-07T06:46:03.503Z,988.93
2018-02-07T06:47:02.758Z,988.95
2018-02-07T06:48:02.668Z,988.94
2018-02-07T06:49:02.829Z,988.92
2018-02-07T06:50:02.429Z,988.91
2018-02-07T06:51:02.701Z,988.88
2018-02-07T06:52:03.650Z,988.89
2018-02-07T06:53:02.402Z,988.84
2018-02-07T06:54:02.150Z,988.87
2018-02-07T06:55:02.370Z,988.88
2018-02-07T06:56:02.229Z,988.82
2018-02-07T06:57:02.044Z,988.83
2018-02-07T06:58:03.582Z,988.80
2018-02-07T06:59:02.099Z,988.79
2018-02-07T07:00:02.122Z,988.79
2018-02-07T07:01:01.533Z,988.74
2018-02-07T07:02:02.240Z,988.78
2018-02-07T07:03:01.870Z,988.71
2018-02-07T07:04:02.539Z,988.67
2018-02-07T07:05:00.434Z,988.71
2018-02-07T07:06:01.995Z,988.72
2018-02-07T07:07:01.728Z,988.67
2018-02-07T07:08:00.362Z,988.64
2018-02-07T07:09:02.164Z,988.68
2018-02-07T07:10:02.451Z,988.66
2018-02-07T07:11:02.132Z,988.64
2018-02-07T07:12:02.391Z,988.64
2018-02-07T07:13:01.683Z,988.60
2018-02-07T07:14:01.843Z,988.55
2018-02-07T07:15:01.838Z,988.54
2018-02-07T07:16:03.025Z,988.59
2018-02-07T07:17:01.730Z,988.57
2018-02-07T07:18:01.762Z,988.51
2018-02-07T07:19:01.826Z,988.55
2018-02-07T07:20:00.846Z,988.51
2018-02-07T07:21:01.215Z,988.48
2018-02-07T07:22:02.465Z,988.49
2018-02-07T07:23:02.036Z,988.49
2018-02-07T07:24:01.499Z,988.49
2018-02-07T07:25:01.731Z,988.49
2018-02-07T07:26:01.008Z,988.50
2018-02-07T07:27:00.812Z,988.48
2018-02-07T07:28:02.519Z,988.51
2018-02-07T07:29:01.308Z,988.48
2018-02-07T07:30:01.632Z,988.50
2018-02-07T07:31:01.249Z,988.49
2018-02-07T07:32:01.268Z,988.48
2018-02-07T07:33:00.981Z,988.41
2018-02-07T07:34:02.359Z,988.39
2018-02-07T07:35:01.335Z,988.42
2018-02-07T07:36:01.159Z,988.41
2018-02-07T07:37:01.122Z,988.34
2018-02-07T07:38:00.929Z,988.35
2018-02-07T07:39:01.201Z,988.35
2018-02-07T07:40:01.919Z,988.38
2018-02-07T07:41:00.930Z,988.31
2018-02-07T07:42:00.794Z,988.33
2018-02-07T07:43:01.290Z,988.33
2018-02-07T07:44:00.982Z,988.36
2018-02-07T07:45:00.841Z,988.36
2018-02-07T07:46:01.063Z,988.37
2018-02-07T07:47:00.599Z,988.36
2018-02-07T07:48:01.004Z,988.37
2018-02-07T07:49:00.693Z,988.36
2018-02-07T07:50:00.231Z,988.35
2018-02-07T07:51:00.724Z,988.34
2018-02-07T07:52:00.113Z,988.29
2018-02-07T07:53:00.794Z,988.27
2018-02-07T07:53:59.162Z,988.23
2018-02-07T07:54:59.125Z,988.23
2018-02-07T07:55:59.112Z,988.26
2018-02-07T07:56:59.067Z,988.28
2018-02-07T07:57:59.204Z,988.26
2018-02-07T07:58:59.037Z,988.28
2018-02-07T07:59:58.996Z,988.27
2018-02-07T08:00:58.969Z,988.31
2018-02-07T08:01:58.947Z,988.25
2018-02-07T08:02:58.966Z,988.26
2018-02-07T08:03:58.976Z,988.21
2018-02-07T08:04:58.878Z,988.19
2018-02-07T08:05:58.839Z,988.19
2018-02-07T08:06:58.808Z,988.17
2018-02-07T08:07:58.793Z,988.22
2018-02-07T08:08:58.862Z,988.24
2018-02-07T08:09:58.795Z,988.23
2018-02-07T08:10:58.720Z,988.28
2018-02-07T08:11:58.678Z,988.22
2018-02-07T08:12:58.659Z,988.19
2018-02-07T08:13:58.735Z,988.24
2018-02-07T08:14:58.588Z,988.22
2018-02-07T08:15:58.571Z,988.17
2018-02-07T08:16:58.542Z,988.21
2018-02-07T08:17:58.511Z,988.21
2018-02-07T08:18:58.546Z,988.23
2018-02-07T08:19:58.601Z,988.20
2018-02-07T08:20:58.447Z,988.23
2018-02-07T08:21:58.403Z,988.19
2018-02-07T08:22:58.461Z,988.17
2018-02-07T08:23:58.351Z,988.16
2018-02-07T08:24:58.322Z,988.23
2018-02-07T08:25:58.411Z,988.20
2018-02-07T08:26:58.284Z,988.22
2018-02-07T08:27:58.258Z,988.23
2018-02-07T08:28:58.225Z,988.21
2018-02-07T08:29:58.209Z,988.21
2018-02-07T08:30:58.322Z,988.21
2018-02-07T08:31:58.155Z,988.21
2018-02-07T08:32:58.116Z,988.21
2018-02-07T08:33:58.106Z,988.20
2018-02-07T08:34:58.079Z,988.22
2018-02-07T08:35:58.106Z,988.20
2018-02-07T08:36:58.125Z,988.18
2018-02-07T08:37:57.984Z,988.13
2018-02-07T08:38:57.953Z,988.14
2018-02-07T08:39:57.936Z,988.14
2018-02-07T08:40:57.913Z,988.12
2018-02-07T08:41:57.991Z,988.13
2018-02-07T08:42:57.931Z,988.15
2018-02-07T08:43:57.816Z,988.18
2018-02-07T08:44:57.798Z,988.25
2018-02-07T08:45:57.776Z,988.24
2018-02-07T08:46:57.855Z,988.19
2018-02-07T08:47:57.719Z,988.19
2018-02-07T08:48:57.704Z,988.20
2018-02-07T08:49:57.659Z,988.19
2018-02-07T08:50:57.638Z,988.15
2018-02-07T08:51:57.709Z,988.13
2018-02-07T08:52:57.596Z,988.13
2018-02-07T08:53:57.575Z,988.13
2018-02-07T08:54:57.545Z,988.09
2018-02-07T08:55:57.516Z,988.08
2018-02-07T08:56:57.631Z,988.08
2018-02-07T08:57:57.450Z,988.05
2018-02-07T08:58:57.438Z,988.09
2018-02-07T08:59:57.401Z,988.09
2018-02-07T09:00:57.372Z,988.09
2018-02-07T09:01:57.349Z,988.07
2018-02-07T09:02:57.419Z,988.05
2018-02-07T09:03:57.308Z,988.06
2018-02-07T09:04:57.260Z,988.03
2018-02-07T09:05:57.242Z,988.04
2018-02-07T09:06:57.222Z,988.03
2018-02-07T09:07:57.287Z,988.02
2018-02-07T09:08:57.163Z,988.01
2018-02-07T09:09:57.133Z,987.98
2018-02-07T09:10:57.111Z,988.00
2018-02-07T09:11:57.088Z,988.03
2018-02-07T09:12:57.121Z,988.00
2018-02-07T09:13:57.151Z,988.01
2018-02-07T09:14:57.012Z,988.03
2018-02-07T09:15:56.974Z,988.01
2018-02-07T09:16:56.956Z,988.01
2018-02-07T09:17:56.925Z,987.99
2018-02-07T09:18:57.050Z,988.04
2018-02-07T09:19:56.887Z,988.05
2018-02-07T09:20:56.849Z,988.03
2018-02-07T09:21:56.816Z,988.01
2018-02-07T09:22:56.796Z,988.06
2018-02-07T09:23:56.868Z,988.03
2018-02-07T09:24:56.738Z,988.09
2018-02-07T09:25:56.732Z,988.10
2018-02-07T09:26:56.705Z,988.09
2018-02-07T09:27:56.669Z,988.10
2018-02-07T09:28:56.788Z,988.09
2018-02-07T09:29:56.626Z,988.07
2018-02-07T09:30:56.588Z,988.11
2018-02-07T09:31:56.569Z,988.12
2018-02-07T09:32:56.561Z,988.14
2018-02-07T09:33:56.610Z,988.11
2018-02-07T09:34:56.500Z,988.13
2018-02-07T09:35:56.477Z,988.14
2018-02-07T09:36:56.429Z,988.15
2018-02-07T09:37:56.429Z,988.13
2018-02-07T09:38:56.390Z,988.15
2018-02-07T09:39:56.459Z,988.15
2018-02-07T09:40:56.331Z,988.15
2018-02-07T09:41:56.305Z,988.16
2018-02-07T09:42:56.279Z,988.18
2018-02-07T09:43:56.252Z,988.19
2018-02-07T09:44:56.232Z,988.23
2018-02-07T09:45:56.319Z,988.24
2018-02-07T09:46:56.181Z,988.20
2018-02-07T09:47:56.173Z,988.28
2018-02-07T09:48:56.121Z,988.19
2018-02-07T09:49:56.118Z,988.25
2018-02-07T09:50:56.145Z,988.23
2018-02-07T09:51:56.152Z,988.24
2018-02-07T09:52:56.039Z,988.22
2018-02-07T09:53:56.005Z,988.24
2018-02-07T09:54:55.980Z,988.24
2018-02-07T09:55:55.964Z,988.25
2018-02-07T09:56:56.074Z,988.26
2018-02-07T09:57:55.910Z,988.26
2018-02-07T09:58:55.890Z,988.24
2018-02-07T09:59:55.854Z,988.27
2018-02-07T10:00:55.831Z,988.25
2018-02-07T10:01:55.917Z,988.27
2018-02-07T10:02:55.797Z,988.26
2018-02-07T10:03:55.746Z,988.27
2018-02-07T10:04:55.805Z,988.30
2018-02-07T10:05:55.714Z,988.31
2018-02-07T10:06:55.777Z,988.31
2018-02-07T10:07:55.655Z,988.33
2018-02-07T10:08:55.641Z,988.31
2018-02-07T10:09:55.599Z,988.35
2018-02-07T10:10:55.567Z,988.34
2018-02-07T10:11:55.647Z,988.33
2018-02-07T10:12:55.517Z,988.32
2018-02-07T10:13:55.499Z,988.33
2018-02-07T10:14:55.477Z,988.31
2018-02-07T10:15:55.441Z,988.34
2018-02-07T10:16:55.420Z,988.36
2018-02-07T10:17:55.491Z,988.34
2018-02-07T10:18:55.380Z,988.34
2018-02-07T10:19:55.359Z,988.32
2018-02-07T10:20:55.336Z,988.32
2018-02-07T10:21:55.302Z,988.31
2018-02-07T10:22:55.275Z,988.33
2018-02-07T10:23:55.463Z,988.33
2018-02-07T10:24:55.202Z,988.36
2018-02-07T10:25:55.191Z,988.34
2018-02-07T10:26:55.280Z,988.36
2018-02-07T10:27:55.141Z,988.36
2018-02-07T10:28:55.213Z,988.37
2018-02-07T10:29:55.092Z,988.40
2018-02-07T10:30:55.114Z,988.41
2018-02-07T10:31:55.058Z,988.47
2018-02-07T10:32:55.014Z,988.44
2018-02-07T10:33:55.104Z,988.44
2018-02-07T10:34:54.973Z,988.41
2018-02-07T10:35:54.944Z,988.47
2018-02-07T10:36:54.916Z,988.47
2018-02-07T10:37:54.893Z,988.48
2018-02-07T10:38:54.980Z,988.51
2018-02-07T10:39:54.835Z,988.53
2018-02-07T10:40:54.815Z,988.53
2018-02-07T10:41:54.787Z,988.52
2018-02-07T10:42:54.765Z,988.51
2018-02-07T10:43:54.840Z,988.49
2018-02-07T10:44:54.717Z,988.50
2018-02-07T10:45:54.703Z,988.51
2018-02-07T10:46:54.688Z,988.48
2018-02-07T10:47:54.651Z,988.49
2018-02-07T10:48:54.687Z,988.51
2018-02-07T10:49:54.603Z,988.52
2018-02-07T10:50:54.586Z,988.54
2018-02-07T10:51:54.538Z,988.54
2018-02-07T10:52:54.519Z,988.51
2018-02-07T10:53:54.491Z,988.52
2018-02-07T10:54:54.568Z,988.53
2018-02-07T10:55:54.441Z,988.53
2018-02-07T10:56:54.418Z,988.55
2018-02-07T10:57:54.401Z,988.53
2018-02-07T10:58:54.357Z,988.55
2018-02-07T10:59:54.354Z,988.54
2018-02-07T11:00:54.411Z,988.55
2018-02-07T11:01:54.388Z,988.60
2018-02-07T11:02:54.277Z,988.60
2018-02-07T11:03:54.257Z,988.63
2018-02-07T11:04:54.211Z,988.68
2018-02-07T11:05:54.390Z,988.64
2018-02-07T11:06:54.166Z,988.66
2018-02-07T11:07:54.142Z,988.67
2018-02-07T11:08:54.114Z,988.68
2018-02-07T11:09:54.093Z,988.73
2018-02-07T11:10:54.164Z,988.70
2018-02-07T11:11:54.043Z,988.71
2018-02-07T11:12:54.014Z,988.75
2018-02-07T11:13:53.997Z,988.72
2018-02-07T11:14:53.994Z,988.75
2018-02-07T11:15:54.068Z,988.74
2018-02-07T11:16:53.916Z,988.73
2018-02-07T11:17:53.890Z,988.72
2018-02-07T11:18:53.863Z,988.73
2018-02-07T11:19:53.835Z,988.75
2018-02-07T11:20:53.925Z,988.71
2018-02-07T11:21:53.799Z,988.72
2018-02-07T11:22:53.772Z,988.73
2018-02-07T11:23:53.752Z,988.74
2018-02-07T11:24:53.720Z,988.75
2018-02-07T11:25:53.796Z,988.80
2018-02-07T11:26:53.669Z,988.83
2018-02-07T11:27:53.638Z,988.84
2018-02-07T11:28:53.615Z,988.82
2018-02-07T11:29:53.604Z,988.84
2018-02-07T11:30:53.667Z,988.87
2018-02-07T11:31:53.551Z,988.88
2018-02-07T11:32:53.549Z,988.90
2018-02-07T11:33:53.488Z,988.91
2018-02-07T11:34:53.456Z,988.91
2018-02-07T11:35:53.441Z,988.93
2018-02-07T11:36:53.586Z,988.94
2018-02-07T11:37:53.391Z,988.96
2018-02-07T11:38:53.370Z,988.96
2018-02-07T11:39:53.356Z,988.95
2018-02-07T11:40:53.320Z,988.96
2018-02-07T11:41:53.296Z,988.98
2018-02-07T11:42:53.364Z,988.96
2018-02-07T11:43:53.238Z,988.97
2018-02-07T11:44:53.216Z,988.95
2018-02-07T11:45:53.180Z,988.97
2018-02-07T11:46:53.612Z,988.98
2018-02-07T11:47:53.705Z,988.95
2018-02-07T11:48:53.129Z,988.99
2018-02-07T11:49:53.094Z,988.98
2018-02-07T11:50:53.155Z,988.93
2018-02-07T11:51:53.094Z,988.94
2018-02-07T11:52:54.844Z,988.95
2018-02-07T11:53:53.146Z,988.92
2018-02-07T11:54:52.964Z,988.98
2018-02-07T11:55:52.975Z,988.99
2018-02-07T11:56:52.923Z,989.00
2018-02-07T11:57:52.954Z,989.02
2018-02-07T11:58:53.148Z,988.99
2018-02-07T11:59:52.842Z,988.97
2018-02-07T12:00:52.805Z,988.98
2018-02-07T12:01:52.845Z,989.00
2018-02-07T12:02:52.765Z,989.03
2018-02-07T12:03:52.827Z,989.06
2018-02-07T12:04:52.707Z,989.04
2018-02-07T12:05:52.699Z,989.09
2018-02-07T12:06:52.664Z,989.13
2018-02-07T12:07:52.627Z,989.15
2018-02-07T12:08:52.784Z,989.16
2018-02-07T12:09:52.567Z,989.18
2018-02-07T12:10:52.608Z,989.20
2018-02-07T12:11:52.549Z,989.19
2018-02-07T12:12:52.518Z,989.18
2018-02-07T12:13:52.546Z,989.21
2018-02-07T12:14:52.562Z,989.19
2018-02-07T12:15:52.496Z,989.22
2018-02-07T12:16:52.453Z,989.19
2018-02-07T12:17:52.378Z,989.24
2018-02-07T12:18:52.382Z,989.24
2018-02-07T12:19:52.532Z,989.27
2018-02-07T12:20:52.422Z,989.24
2018-02-07T12:21:52.311Z,989.23
2018-02-07T12:22:52.260Z,989.28
2018-02-07T12:23:52.228Z,989.24
2018-02-07T12:24:52.217Z,989.23
2018-02-07T12:25:52.282Z,989.25
2018-02-07T12:26:52.153Z,989.26
2018-02-07T12:27:52.132Z,989.27
2018-02-07T12:28:52.103Z,989.29